sensor_id;sensor_type;location;lat;lon;timestamp;pressure;altitude;pressure_sealevel;temperature;humidity
15477;BME280;7840;42.702;23.296;2024-01-15T00:02:19;94523.50;;;-2.80;100.00
15477;BME280;7840;42.702;23.296;2024-01-15T00:04:47;94522.41;;;-2.70;100.00
15477;BME280;7840;42.702;23.296;2024-01-15T00:07:16;94514.72;;;-2.64;100.00
15477;BME280;7840;42.702;23.296;2024-01-15T00:09:43;94511.34;;;-2.64;100.00
15477;BME280;7840;42.702;23.296;2024-01-15T00:12:14;94514.91;;;-2.80;100.00
15477;BME280;7840;42.702;23.296;2024-01-15T00:14:41;94509.84;;;-2.73;100.00
15477;BME280;7840;42.702;23.296;2024-01-15T00:17:09;94521.94;;;-2.89;100.00
15477;BME280;7840;42.702;23.296;2024-01-15T00:19:37;94512.19;;;-3.16;100.00
15477;BME280;7840;42.702;23.296;2024-01-15T00:22:05;94524.91;;;-3.07;100.00
15477;BME280;7840;42.702;23.296;2024-01-15T00:24:34;94505.78;;;-3.06;100.00
15477;BME280;7840;42.702;23.296;2024-01-15T00:27:02;94518.91;;;-3.07;100.00
15477;BME280;7840;42.702;23.296;2024-01-15T00:29:29;94515.25;;;-2.98;100.00
15477;BME280;7840;42.702;23.296;2024-01-15T00:31:57;94523.72;;;-3.04;100.00
15477;BME280;7840;42.702;23.296;2024-01-15T00:34:25;94523.38;;;-3.01;100.00
15477;BME280;7840;42.702;23.296;2024-01-15T00:36:53;94521.09;;;-3.34;100.00
15477;BME280;7840;42.702;23.296;2024-01-15T00:39:20;94514.84;;;-3.24;100.00
15477;BME280;7840;42.702;23.296;2024-01-15T00:41:59;94513.06;;;-3.24;100.00
15477;BME280;7840;42.702;23.296;2024-01-15T00:44:27;94512.81;;;-3.14;100.00
15477;BME280;7840;42.702;23.296;2024-01-15T00:46:54;94515.84;;;-3.11;100.00
15477;BME280;7840;42.702;23.296;2024-01-15T00:49:22;94518.22;;;-3.01;100.00
15477;BME280;7840;42.702;23.296;2024-01-15T00:51:50;94520.16;;;-3.03;100.00
15477;BME280;7840;42.702;23.296;2024-01-15T00:54:18;94514.97;;;-3.03;100.00
15477;BME280;7840;42.702;23.296;2024-01-15T00:56:53;94523.03;;;-2.98;100.00
15477;BME280;7840;42.702;23.296;2024-01-15T00:59:23;94511.13;;;-3.07;100.00
15477;BME280;7840;42.702;23.296;2024-01-15T01:01:50;94510.84;;;-3.12;100.00
15477;BME280;7840;42.702;23.296;2024-01-15T01:04:18;94512.47;;;-3.11;100.00
15477;BME280;7840;42.702;23.296;2024-01-15T01:06:46;94510.16;;;-3.06;100.00
15477;BME280;7840;42.702;23.296;2024-01-15T01:09:13;94503.47;;;-3.00;100.00
15477;BME280;7840;42.702;23.296;2024-01-15T01:11:41;94503.72;;;-2.95;100.00
15477;BME280;7840;42.702;23.296;2024-01-15T01:14:09;94499.69;;;-2.98;100.00
15477;BME280;7840;42.702;23.296;2024-01-15T01:16:38;94505.88;;;-2.99;100.00
15477;BME280;7840;42.702;23.296;2024-01-15T01:19:06;94504.50;;;-3.10;100.00
15477;BME280;7840;42.702;23.296;2024-01-15T01:21:34;94503.56;;;-3.09;100.00
15477;BME280;7840;42.702;23.296;2024-01-15T01:24:01;94499.00;;;-3.07;100.00
15477;BME280;7840;42.702;23.296;2024-01-15T01:26:29;94499.78;;;-3.06;100.00
15477;BME280;7840;42.702;23.296;2024-01-15T01:28:57;94493.09;;;-3.00;100.00
15477;BME280;7840;42.702;23.296;2024-01-15T01:31:25;94495.84;;;-3.02;100.00
15477;BME280;7840;42.702;23.296;2024-01-15T01:33:54;94490.34;;;-2.99;100.00
15477;BME280;7840;42.702;23.296;2024-01-15T01:36:21;94493.53;;;-2.97;100.00
15477;BME280;7840;42.702;23.296;2024-01-15T01:38:49;94491.59;;;-2.95;100.00
15477;BME280;7840;42.702;23.296;2024-01-15T01:41:17;94486.03;;;-2.92;100.00
15477;BME280;7840;42.702;23.296;2024-01-15T01:43:44;94478.88;;;-2.90;100.00
15477;BME280;7840;42.702;23.296;2024-01-15T01:46:12;94487.13;;;-3.01;100.00
15477;BME280;7840;42.702;23.296;2024-01-15T01:48:40;94486.47;;;-3.03;100.00
15477;BME280;7840;42.702;23.296;2024-01-15T01:51:10;94485.84;;;-3.05;100.00
15477;BME280;7840;42.702;23.296;2024-01-15T01:53:39;94477.09;;;-3.04;100.00
15477;BME280;7840;42.702;23.296;2024-01-15T01:56:07;94476.56;;;-3.14;100.00
15477;BME280;7840;42.702;23.296;2024-01-15T01:58:35;94470.22;;;-3.12;100.00
15477;BME280;7840;42.702;23.296;2024-01-15T02:01:03;94473.69;;;-3.05;100.00
15477;BME280;7840;42.702;23.296;2024-01-15T02:03:31;94470.41;;;-2.98;100.00
15477;BME280;7840;42.702;23.296;2024-01-15T02:06:00;94470.50;;;-2.92;100.00
15477;BME280;7840;42.702;23.296;2024-01-15T02:08:30;94465.94;;;-2.90;100.00
15477;BME280;7840;42.702;23.296;2024-01-15T02:10:58;94470.94;;;-2.88;100.00
15477;BME280;7840;42.702;23.296;2024-01-15T02:13:26;94459.75;;;-2.89;100.00
15477;BME280;7840;42.702;23.296;2024-01-15T02:15:53;94460.75;;;-3.05;100.00
15477;BME280;7840;42.702;23.296;2024-01-15T02:18:21;94451.66;;;-3.00;100.00
15477;BME280;7840;42.702;23.296;2024-01-15T02:20:48;94443.97;;;-2.94;100.00
15477;BME280;7840;42.702;23.296;2024-01-15T02:23:17;94437.81;;;-2.93;100.00
15477;BME280;7840;42.702;23.296;2024-01-15T02:25:46;94411.28;;;-2.95;100.00
15477;BME280;7840;42.702;23.296;2024-01-15T02:28:15;94413.31;;;-3.05;100.00
15477;BME280;7840;42.702;23.296;2024-01-15T02:30:43;94411.72;;;-3.06;100.00
15477;BME280;7840;42.702;23.296;2024-01-15T02:33:11;94395.19;;;-3.20;100.00
15477;BME280;7840;42.702;23.296;2024-01-15T02:35:39;94399.47;;;-3.42;100.00
15477;BME280;7840;42.702;23.296;2024-01-15T02:38:07;94402.22;;;-3.58;100.00
15477;BME280;7840;42.702;23.296;2024-01-15T02:40:37;94407.38;;;-3.58;100.00
15477;BME280;7840;42.702;23.296;2024-01-15T02:43:05;94402.41;;;-3.45;100.00
15477;BME280;7840;42.702;23.296;2024-01-15T02:45:35;94408.84;;;-3.41;100.00
15477;BME280;7840;42.702;23.296;2024-01-15T02:48:03;94405.97;;;-3.46;100.00
15477;BME280;7840;42.702;23.296;2024-01-15T02:50:31;94406.75;;;-3.60;100.00
15477;BME280;7840;42.702;23.296;2024-01-15T02:52:58;94407.78;;;-3.84;100.00
15477;BME280;7840;42.702;23.296;2024-01-15T02:55:26;94408.19;;;-3.95;100.00
15477;BME280;7840;42.702;23.296;2024-01-15T02:57:57;94403.19;;;-3.97;100.00
15477;BME280;7840;42.702;23.296;2024-01-15T03:00:24;94399.50;;;-3.79;100.00
15477;BME280;7840;42.702;23.296;2024-01-15T03:02:52;94394.19;;;-3.63;100.00
15477;BME280;7840;42.702;23.296;2024-01-15T03:05:26;94402.56;;;-3.61;100.00
15477;BME280;7840;42.702;23.296;2024-01-15T03:07:54;94410.06;;;-3.66;100.00
15477;BME280;7840;42.702;23.296;2024-01-15T03:10:22;94408.16;;;-3.72;100.00
15477;BME280;7840;42.702;23.296;2024-01-15T03:12:49;94397.59;;;-3.48;100.00
15477;BME280;7840;42.702;23.296;2024-01-15T03:15:18;94388.31;;;-3.27;100.00
15477;BME280;7840;42.702;23.296;2024-01-15T03:17:46;94390.81;;;-3.19;100.00
15477;BME280;7840;42.702;23.296;2024-01-15T03:20:14;94386.53;;;-3.12;100.00
15477;BME280;7840;42.702;23.296;2024-01-15T03:22:42;94389.13;;;-3.12;100.00
15477;BME280;7840;42.702;23.296;2024-01-15T03:25:09;94380.38;;;-3.11;100.00
15477;BME280;7840;42.702;23.296;2024-01-15T03:27:37;94383.50;;;-3.01;100.00
15477;BME280;7840;42.702;23.296;2024-01-15T03:30:05;94372.41;;;-2.95;100.00
15477;BME280;7840;42.702;23.296;2024-01-15T03:32:35;94382.31;;;-2.84;100.00
15477;BME280;7840;42.702;23.296;2024-01-15T03:35:02;94377.81;;;-2.75;100.00
15477;BME280;7840;42.702;23.296;2024-01-15T03:37:30;94383.88;;;-2.68;100.00
15477;BME280;7840;42.702;23.296;2024-01-15T03:39:57;94380.00;;;-2.93;100.00
15477;BME280;7840;42.702;23.296;2024-01-15T03:42:25;94384.19;;;-3.37;100.00
15477;BME280;7840;42.702;23.296;2024-01-15T03:44:55;94379.97;;;-3.67;100.00
15477;BME280;7840;42.702;23.296;2024-01-15T03:47:23;94378.47;;;-3.76;100.00
15477;BME280;7840;42.702;23.296;2024-01-15T03:49:52;94378.47;;;-3.62;100.00
15477;BME280;7840;42.702;23.296;2024-01-15T03:52:20;94373.72;;;-3.73;100.00
15477;BME280;7840;42.702;23.296;2024-01-15T03:54:47;94379.91;;;-3.44;100.00
15477;BME280;7840;42.702;23.296;2024-01-15T03:57:15;94381.53;;;-3.14;100.00
15477;BME280;7840;42.702;23.296;2024-01-15T03:59:42;94369.19;;;-2.97;100.00
15477;BME280;7840;42.702;23.296;2024-01-15T04:02:13;94366.13;;;-2.86;100.00
15477;BME280;7840;42.702;23.296;2024-01-15T04:04:42;94373.44;;;-2.75;100.00
15477;BME280;7840;42.702;23.296;2024-01-15T04:07:11;94360.00;;;-2.63;100.00
15477;BME280;7840;42.702;23.296;2024-01-15T04:09:38;94361.59;;;-2.62;100.00
15477;BME280;7840;42.702;23.296;2024-01-15T04:12:07;94356.53;;;-2.70;100.00
15477;BME280;7840;42.702;23.296;2024-01-15T04:14:34;94365.69;;;-2.89;100.00
15477;BME280;7840;42.702;23.296;2024-01-15T04:17:05;94357.16;;;-3.19;100.00
15477;BME280;7840;42.702;23.296;2024-01-15T04:19:36;94365.81;;;-3.42;100.00
15477;BME280;7840;42.702;23.296;2024-01-15T04:22:04;94359.28;;;-3.23;100.00
15477;BME280;7840;42.702;23.296;2024-01-15T04:24:33;94358.22;;;-3.14;100.00
15477;BME280;7840;42.702;23.296;2024-01-15T04:27:01;94353.59;;;-3.63;100.00
15477;BME280;7840;42.702;23.296;2024-01-15T04:29:29;94358.84;;;-3.56;100.00
15477;BME280;7840;42.702;23.296;2024-01-15T04:31:58;94356.31;;;-3.64;100.00
15477;BME280;7840;42.702;23.296;2024-01-15T04:34:28;94352.41;;;-3.60;100.00
15477;BME280;7840;42.702;23.296;2024-01-15T04:36:56;94353.63;;;-3.71;100.00
15477;BME280;7840;42.702;23.296;2024-01-15T04:39:23;94356.28;;;-3.94;100.00
15477;BME280;7840;42.702;23.296;2024-01-15T04:41:52;94350.44;;;-3.73;100.00
15477;BME280;7840;42.702;23.296;2024-01-15T04:44:20;94348.81;;;-3.89;100.00
15477;BME280;7840;42.702;23.296;2024-01-15T04:46:48;94351.09;;;-4.08;100.00
15477;BME280;7840;42.702;23.296;2024-01-15T04:49:29;94342.84;;;-4.12;100.00
15477;BME280;7840;42.702;23.296;2024-01-15T04:51:57;94352.28;;;-4.19;100.00
15477;BME280;7840;42.702;23.296;2024-01-15T04:54:25;94342.53;;;-4.09;100.00
15477;BME280;7840;42.702;23.296;2024-01-15T04:56:54;94328.72;;;-3.87;100.00
15477;BME280;7840;42.702;23.296;2024-01-15T04:59:21;94328.72;;;-4.01;100.00
15477;BME280;7840;42.702;23.296;2024-01-15T05:01:49;94334.91;;;-3.88;100.00
15477;BME280;7840;42.702;23.296;2024-01-15T05:04:17;94332.22;;;-3.79;100.00
15477;BME280;7840;42.702;23.296;2024-01-15T05:06:44;94333.66;;;-3.33;100.00
15477;BME280;7840;42.702;23.296;2024-01-15T05:09:12;94338.75;;;-3.24;100.00
15477;BME280;7840;42.702;23.296;2024-01-15T05:11:40;94317.59;;;-3.13;100.00
15477;BME280;7840;42.702;23.296;2024-01-15T05:14:09;94334.28;;;-3.01;100.00
15477;BME280;7840;42.702;23.296;2024-01-15T05:16:38;94323.41;;;-3.55;100.00
15477;BME280;7840;42.702;23.296;2024-01-15T05:19:07;94331.94;;;-3.85;100.00
15477;BME280;7840;42.702;23.296;2024-01-15T05:21:34;94334.41;;;-4.06;100.00
15477;BME280;7840;42.702;23.296;2024-01-15T05:24:02;94329.88;;;-4.04;100.00
15477;BME280;7840;42.702;23.296;2024-01-15T05:26:30;94337.19;;;-3.93;100.00
15477;BME280;7840;42.702;23.296;2024-01-15T05:28:57;94324.41;;;-4.09;100.00
15477;BME280;7840;42.702;23.296;2024-01-15T05:31:26;94331.72;;;-4.13;100.00
15477;BME280;7840;42.702;23.296;2024-01-15T05:33:54;94314.59;;;-4.14;100.00
15477;BME280;7840;42.702;23.296;2024-01-15T05:36:22;94314.50;;;-4.05;100.00
15477;BME280;7840;42.702;23.296;2024-01-15T05:38:49;94310.78;;;-4.03;100.00
15477;BME280;7840;42.702;23.296;2024-01-15T05:41:17;94315.19;;;-3.74;100.00
15477;BME280;7840;42.702;23.296;2024-01-15T05:43:45;94319.38;;;-3.73;100.00
15477;BME280;7840;42.702;23.296;2024-01-15T05:46:12;94317.47;;;-3.94;100.00
15477;BME280;7840;42.702;23.296;2024-01-15T05:48:43;94308.75;;;-3.93;100.00
15477;BME280;7840;42.702;23.296;2024-01-15T05:51:10;94294.69;;;-3.75;100.00
15477;BME280;7840;42.702;23.296;2024-01-15T05:53:38;94300.03;;;-3.62;100.00
15477;BME280;7840;42.702;23.296;2024-01-15T05:56:09;94301.19;;;-3.50;100.00
15477;BME280;7840;42.702;23.296;2024-01-15T05:58:38;94299.94;;;-3.54;100.00
15477;BME280;7840;42.702;23.296;2024-01-15T06:01:06;94311.91;;;-3.53;100.00
15477;BME280;7840;42.702;23.296;2024-01-15T06:03:33;94314.41;;;-3.74;100.00
15477;BME280;7840;42.702;23.296;2024-01-15T06:06:02;94313.28;;;-3.95;100.00
15477;BME280;7840;42.702;23.296;2024-01-15T06:08:30;94308.38;;;-4.04;100.00
15477;BME280;7840;42.702;23.296;2024-01-15T06:10:58;94308.13;;;-3.95;100.00
15477;BME280;7840;42.702;23.296;2024-01-15T06:13:25;94304.41;;;-3.77;100.00
15477;BME280;7840;42.702;23.296;2024-01-15T06:15:53;94316.97;;;-3.45;100.00
15477;BME280;7840;42.702;23.296;2024-01-15T06:18:20;94307.50;;;-3.23;100.00
15477;BME280;7840;42.702;23.296;2024-01-15T06:20:48;94307.66;;;-3.10;100.00
15477;BME280;7840;42.702;23.296;2024-01-15T06:23:17;94286.81;;;-2.87;100.00
15477;BME280;7840;42.702;23.296;2024-01-15T06:25:45;94292.13;;;-2.73;100.00
15477;BME280;7840;42.702;23.296;2024-01-15T06:28:13;94297.44;;;-2.60;100.00
15477;BME280;7840;42.702;23.296;2024-01-15T06:30:40;94298.66;;;-2.56;100.00
15477;BME280;7840;42.702;23.296;2024-01-15T06:33:08;94308.53;;;-2.66;100.00
15477;BME280;7840;42.702;23.296;2024-01-15T06:35:36;94307.56;;;-2.65;100.00
15477;BME280;7840;42.702;23.296;2024-01-15T06:38:03;94312.13;;;-2.67;100.00
15477;BME280;7840;42.702;23.296;2024-01-15T06:40:35;94305.44;;;-2.55;100.00
15477;BME280;7840;42.702;23.296;2024-01-15T06:43:03;94298.44;;;-2.40;100.00
15477;BME280;7840;42.702;23.296;2024-01-15T06:45:31;94299.03;;;-2.59;100.00
15477;BME280;7840;42.702;23.296;2024-01-15T06:47:59;94303.13;;;-2.50;100.00
15477;BME280;7840;42.702;23.296;2024-01-15T06:50:27;94304.03;;;-2.36;100.00
15477;BME280;7840;42.702;23.296;2024-01-15T06:52:55;94300.66;;;-2.58;100.00
15477;BME280;7840;42.702;23.296;2024-01-15T06:55:25;94305.88;;;-2.30;100.00
15477;BME280;7840;42.702;23.296;2024-01-15T06:57:56;94311.31;;;-2.25;100.00
15477;BME280;7840;42.702;23.296;2024-01-15T07:00:24;94319.94;;;-1.97;100.00
15477;BME280;7840;42.702;23.296;2024-01-15T07:02:52;94331.88;;;-2.02;100.00
15477;BME280;7840;42.702;23.296;2024-01-15T07:05:21;94322.38;;;-2.38;100.00
15477;BME280;7840;42.702;23.296;2024-01-15T07:07:48;94306.56;;;-2.64;100.00
15477;BME280;7840;42.702;23.296;2024-01-15T07:10:16;94313.88;;;-2.53;100.00
15477;BME280;7840;42.702;23.296;2024-01-15T07:12:44;94318.47;;;-2.49;100.00
15477;BME280;7840;42.702;23.296;2024-01-15T07:15:14;94314.19;;;-2.13;100.00
15477;BME280;7840;42.702;23.296;2024-01-15T07:17:42;94314.06;;;-1.84;100.00
15477;BME280;7840;42.702;23.296;2024-01-15T07:20:10;94319.13;;;-1.69;100.00
15477;BME280;7840;42.702;23.296;2024-01-15T07:22:39;94309.47;;;-1.47;100.00
15477;BME280;7840;42.702;23.296;2024-01-15T07:25:07;94315.56;;;-1.96;100.00
15477;BME280;7840;42.702;23.296;2024-01-15T07:27:35;94311.81;;;-1.59;100.00
15477;BME280;7840;42.702;23.296;2024-01-15T07:30:08;94298.78;;;-1.31;100.00
15477;BME280;7840;42.702;23.296;2024-01-15T07:32:38;94305.66;;;-1.10;100.00
15477;BME280;7840;42.702;23.296;2024-01-15T07:35:06;94305.53;;;-1.43;100.00
15477;BME280;7840;42.702;23.296;2024-01-15T07:37:33;94294.41;;;-1.24;100.00
15477;BME280;7840;42.702;23.296;2024-01-15T07:40:01;94293.66;;;-1.11;100.00
15477;BME280;7840;42.702;23.296;2024-01-15T07:42:33;94305.72;;;-0.97;100.00
15477;BME280;7840;42.702;23.296;2024-01-15T07:45:01;94297.41;;;-0.72;100.00
15477;BME280;7840;42.702;23.296;2024-01-15T07:47:28;94301.47;;;-0.50;100.00
15477;BME280;7840;42.702;23.296;2024-01-15T07:50:00;94305.31;;;-0.26;100.00
15477;BME280;7840;42.702;23.296;2024-01-15T07:52:27;94315.59;;;-0.79;100.00
15477;BME280;7840;42.702;23.296;2024-01-15T07:54:56;94315.88;;;-0.47;100.00
15477;BME280;7840;42.702;23.296;2024-01-15T07:57:25;94310.31;;;-0.18;100.00
15477;BME280;7840;42.702;23.296;2024-01-15T07:59:53;94287.28;;;-0.08;100.00
15477;BME280;7840;42.702;23.296;2024-01-15T08:02:21;94269.47;;;-0.11;100.00
15477;BME280;7840;42.702;23.296;2024-01-15T08:04:49;94274.69;;;-0.04;100.00
15477;BME280;7840;42.702;23.296;2024-01-15T08:07:18;94284.50;;;0.07;100.00
15477;BME280;7840;42.702;23.296;2024-01-15T08:09:47;94296.69;;;0.33;100.00
15477;BME280;7840;42.702;23.296;2024-01-15T08:12:15;94301.91;;;-0.20;100.00
15477;BME280;7840;42.702;23.296;2024-01-15T08:14:43;94314.50;;;-0.37;100.00
15477;BME280;7840;42.702;23.296;2024-01-15T08:17:11;94300.31;;;0.06;100.00
15477;BME280;7840;42.702;23.296;2024-01-15T08:19:39;94295.91;;;0.26;100.00
15477;BME280;7840;42.702;23.296;2024-01-15T08:22:07;94305.09;;;0.48;100.00
15477;BME280;7840;42.702;23.296;2024-01-15T08:24:52;94315.09;;;0.65;100.00
15477;BME280;7840;42.702;23.296;2024-01-15T08:27:21;94319.47;;;0.77;100.00
15477;BME280;7840;42.702;23.296;2024-01-15T08:29:49;94305.38;;;0.98;100.00
15477;BME280;7840;42.702;23.296;2024-01-15T08:32:18;94300.72;;;1.07;100.00
15477;BME280;7840;42.702;23.296;2024-01-15T08:34:48;94291.22;;;1.26;100.00
15477;BME280;7840;42.702;23.296;2024-01-15T08:37:18;94289.16;;;1.34;100.00
15477;BME280;7840;42.702;23.296;2024-01-15T08:39:46;94287.72;;;1.45;100.00
15477;BME280;7840;42.702;23.296;2024-01-15T08:42:15;94288.38;;;1.34;100.00
15477;BME280;7840;42.702;23.296;2024-01-15T08:44:42;94281.16;;;0.85;100.00
15477;BME280;7840;42.702;23.296;2024-01-15T08:47:10;94276.53;;;0.80;100.00
15477;BME280;7840;42.702;23.296;2024-01-15T08:49:37;94279.41;;;0.59;100.00
15477;BME280;7840;42.702;23.296;2024-01-15T08:52:06;94288.28;;;0.24;100.00
15477;BME280;7840;42.702;23.296;2024-01-15T08:54:34;94275.78;;;0.66;100.00
15477;BME280;7840;42.702;23.296;2024-01-15T08:57:02;94265.88;;;0.88;100.00
15477;BME280;7840;42.702;23.296;2024-01-15T08:59:31;94251.41;;;1.37;100.00
15477;BME280;7840;42.702;23.296;2024-01-15T09:01:58;94255.22;;;1.73;100.00
15477;BME280;7840;42.702;23.296;2024-01-15T09:04:26;94263.00;;;1.79;100.00
15477;BME280;7840;42.702;23.296;2024-01-15T09:06:53;94257.50;;;1.31;100.00
15477;BME280;7840;42.702;23.296;2024-01-15T09:09:23;94237.97;;;1.72;100.00
15477;BME280;7840;42.702;23.296;2024-01-15T09:11:51;94219.50;;;2.16;100.00
15477;BME280;7840;42.702;23.296;2024-01-15T09:14:22;94211.38;;;2.25;100.00
15477;BME280;7840;42.702;23.296;2024-01-15T09:16:51;94208.19;;;2.23;100.00
15477;BME280;7840;42.702;23.296;2024-01-15T09:19:19;94207.47;;;2.52;100.00
15477;BME280;7840;42.702;23.296;2024-01-15T09:21:47;94206.38;;;1.98;100.00
15477;BME280;7840;42.702;23.296;2024-01-15T09:24:14;94203.06;;;1.34;100.00
15477;BME280;7840;42.702;23.296;2024-01-15T09:26:42;94189.38;;;1.07;100.00
15477;BME280;7840;42.702;23.296;2024-01-15T09:29:09;94200.41;;;1.09;100.00
15477;BME280;7840;42.702;23.296;2024-01-15T09:31:37;94206.59;;;0.77;100.00
15477;BME280;7840;42.702;23.296;2024-01-15T09:34:06;94188.28;;;0.90;100.00
15477;BME280;7840;42.702;23.296;2024-01-15T09:36:39;94192.41;;;1.36;100.00
15477;BME280;7840;42.702;23.296;2024-01-15T09:39:08;94187.72;;;1.20;100.00
15477;BME280;7840;42.702;23.296;2024-01-15T09:41:37;94175.38;;;1.02;100.00
15477;BME280;7840;42.702;23.296;2024-01-15T09:44:06;94171.94;;;1.08;100.00
15477;BME280;7840;42.702;23.296;2024-01-15T09:46:35;94154.38;;;1.22;100.00
15477;BME280;7840;42.702;23.296;2024-01-15T09:49:04;94152.59;;;0.91;100.00
15477;BME280;7840;42.702;23.296;2024-01-15T09:51:33;94146.16;;;0.93;100.00
15477;BME280;7840;42.702;23.296;2024-01-15T09:54:00;94135.72;;;1.50;100.00
15477;BME280;7840;42.702;23.296;2024-01-15T09:56:28;94133.13;;;1.93;100.00
15477;BME280;7840;42.702;23.296;2024-01-15T09:58:56;94126.59;;;2.39;100.00
15477;BME280;7840;42.702;23.296;2024-01-15T10:01:24;94132.53;;;2.64;100.00
15477;BME280;7840;42.702;23.296;2024-01-15T10:03:52;94134.31;;;3.12;100.00
15477;BME280;7840;42.702;23.296;2024-01-15T10:06:22;94134.63;;;3.46;100.00
15477;BME280;7840;42.702;23.296;2024-01-15T10:08:50;94123.38;;;3.92;100.00
15477;BME280;7840;42.702;23.296;2024-01-15T10:11:18;94105.31;;;4.31;95.10
15477;BME280;7840;42.702;23.296;2024-01-15T10:13:47;94097.56;;;4.76;92.75
15477;BME280;7840;42.702;23.296;2024-01-15T10:16:17;94098.59;;;5.04;90.40
15477;BME280;7840;42.702;23.296;2024-01-15T10:18:45;94095.47;;;5.35;82.72
15477;BME280;7840;42.702;23.296;2024-01-15T10:21:12;94091.16;;;5.63;79.78
15477;BME280;7840;42.702;23.296;2024-01-15T10:23:43;94090.31;;;5.12;77.38
15477;BME280;7840;42.702;23.296;2024-01-15T10:26:11;94072.19;;;5.61;77.10
15477;BME280;7840;42.702;23.296;2024-01-15T10:28:39;94071.72;;;5.97;74.84
15477;BME280;7840;42.702;23.296;2024-01-15T10:31:07;94068.56;;;6.39;72.01
15477;BME280;7840;42.702;23.296;2024-01-15T10:33:36;94073.19;;;6.76;67.74
15477;BME280;7840;42.702;23.296;2024-01-15T10:36:10;94069.91;;;6.64;66.23
15477;BME280;7840;42.702;23.296;2024-01-15T10:38:38;94059.28;;;6.53;65.87
15477;BME280;7840;42.702;23.296;2024-01-15T10:41:07;94076.53;;;4.88;71.71
15477;BME280;7840;42.702;23.296;2024-01-15T10:43:35;94069.09;;;5.64;75.50
15477;BME280;7840;42.702;23.296;2024-01-15T10:46:03;94062.97;;;5.92;68.67
15477;BME280;7840;42.702;23.296;2024-01-15T10:48:31;94062.38;;;6.07;67.34
15477;BME280;7840;42.702;23.296;2024-01-15T10:51:02;94047.66;;;6.06;68.95
15477;BME280;7840;42.702;23.296;2024-01-15T10:53:37;94052.72;;;6.12;68.81
15477;BME280;7840;42.702;23.296;2024-01-15T10:56:07;94041.06;;;6.25;67.89
15477;BME280;7840;42.702;23.296;2024-01-15T10:58:37;94040.56;;;6.28;67.80
15477;BME280;7840;42.702;23.296;2024-01-15T11:01:07;94051.41;;;6.32;67.26
15477;BME280;7840;42.702;23.296;2024-01-15T11:03:34;94040.28;;;6.51;66.72
15477;BME280;7840;42.702;23.296;2024-01-15T11:06:03;94035.84;;;6.79;66.51
15477;BME280;7840;42.702;23.296;2024-01-15T11:08:30;94024.44;;;6.95;66.01
15477;BME280;7840;42.702;23.296;2024-01-15T11:10:58;94026.03;;;6.96;66.69
15477;BME280;7840;42.702;23.296;2024-01-15T11:13:41;94012.13;;;5.86;68.67
15477;BME280;7840;42.702;23.296;2024-01-15T11:16:11;94003.25;;;6.53;67.87
15477;BME280;7840;42.702;23.296;2024-01-15T11:18:41;94003.78;;;6.82;66.68
15477;BME280;7840;42.702;23.296;2024-01-15T11:21:22;94013.44;;;7.03;66.54
15477;BME280;7840;42.702;23.296;2024-01-15T11:23:50;94003.63;;;7.26;64.64
15477;BME280;7840;42.702;23.296;2024-01-15T11:26:29;93998.28;;;7.53;63.35
15477;BME280;7840;42.702;23.296;2024-01-15T11:28:59;94002.84;;;7.62;62.56
15477;BME280;7840;42.702;23.296;2024-01-15T11:31:29;93997.34;;;7.74;62.74
15477;BME280;7840;42.702;23.296;2024-01-15T11:33:56;94000.91;;;7.95;61.71
15477;BME280;7840;42.702;23.296;2024-01-15T11:39:41;93991.78;;;8.23;59.26
15477;BME280;7840;42.702;23.296;2024-01-15T11:42:13;93996.47;;;8.06;58.80
15477;BME280;7840;42.702;23.296;2024-01-15T11:44:43;93988.84;;;8.04;60.10
15477;BME280;7840;42.702;23.296;2024-01-15T11:47:12;93991.47;;;8.09;60.64
15477;BME280;7840;42.702;23.296;2024-01-15T11:49:59;93984.25;;;7.84;61.18
15477;BME280;7840;42.702;23.296;2024-01-15T11:52:33;93976.53;;;7.73;61.02
15477;BME280;7840;42.702;23.296;2024-01-15T11:55:25;93975.03;;;7.87;61.79
15477;BME280;7840;42.702;23.296;2024-01-15T11:57:54;93970.78;;;7.76;61.65
15477;BME280;7840;42.702;23.296;2024-01-15T12:00:24;93973.81;;;7.57;62.18
15477;BME280;7840;42.702;23.296;2024-01-15T12:02:51;93973.25;;;7.50;61.88
15477;BME280;7840;42.702;23.296;2024-01-15T12:05:20;93963.69;;;7.39;62.60
15477;BME280;7840;42.702;23.296;2024-01-15T12:07:48;93958.34;;;7.29;63.69
15477;BME280;7840;42.702;23.296;2024-01-15T12:10:17;93971.69;;;5.87;68.74
15477;BME280;7840;42.702;23.296;2024-01-15T12:12:58;93951.84;;;5.96;70.58
15477;BME280;7840;42.702;23.296;2024-01-15T12:15:36;93941.41;;;6.28;70.10
15477;BME280;7840;42.702;23.296;2024-01-15T12:18:06;93945.88;;;6.28;68.92
15477;BME280;7840;42.702;23.296;2024-01-15T12:20:34;93949.44;;;6.17;68.21
15477;BME280;7840;42.702;23.296;2024-01-15T12:23:03;93944.38;;;6.10;68.57
15477;BME280;7840;42.702;23.296;2024-01-15T12:25:32;93936.88;;;5.36;72.34
15477;BME280;7840;42.702;23.296;2024-01-15T12:28:02;93944.75;;;5.19;74.60
15477;BME280;7840;42.702;23.296;2024-01-15T12:30:32;93935.13;;;5.64;75.46
15477;BME280;7840;42.702;23.296;2024-01-15T12:33:02;93928.34;;;5.90;73.79
15477;BME280;7840;42.702;23.296;2024-01-15T12:35:31;93923.34;;;6.10;73.44
15477;BME280;7840;42.702;23.296;2024-01-15T12:38:00;93919.34;;;6.29;72.54
15477;BME280;7840;42.702;23.296;2024-01-15T12:40:30;93922.38;;;6.43;70.69
15477;BME280;7840;42.702;23.296;2024-01-15T12:42:58;93920.91;;;6.52;70.14
15477;BME280;7840;42.702;23.296;2024-01-15T12:45:26;93918.25;;;6.52;69.52
15477;BME280;7840;42.702;23.296;2024-01-15T12:47:55;93922.47;;;6.53;68.70
15477;BME280;7840;42.702;23.296;2024-01-15T12:50:25;93915.53;;;6.42;69.66
15477;BME280;7840;42.702;23.296;2024-01-15T12:52:53;93910.38;;;6.52;68.95
15477;BME280;7840;42.702;23.296;2024-01-15T12:55:20;93911.97;;;6.58;68.55
15477;BME280;7840;42.702;23.296;2024-01-15T12:57:49;93910.25;;;6.69;68.78
15477;BME280;7840;42.702;23.296;2024-01-15T13:00:19;93902.59;;;6.68;68.55
15477;BME280;7840;42.702;23.296;2024-01-15T13:02:46;93900.84;;;6.46;69.08
15477;BME280;7840;42.702;23.296;2024-01-15T13:05:17;93899.06;;;6.52;68.56
15477;BME280;7840;42.702;23.296;2024-01-15T13:07:46;93900.63;;;6.53;69.76